Time;durP1;ratioP1;P1;durP2;ratioP2;P2;SDS_P1;SDS_P2;PMS_P1;PMS_P2;Temp;Humidity;BMP_temperature;BMP_pressure;BME280_temperature;BME280_humidity;BME280_pressure;Samples;Min_cycle;Max_cycle;Signal;HPM_P1;HPM_P2
2023/10/07 00:02:16;;;;;;;5.47;3.55;;;18.20;73.70;;;;;;5045575;28;20507;-67
2023/10/07 00:04:44;;;;;;;7.00;3.58;;;18.10;73.60;;;;;;5059845;28;20041;-69
2023/10/07 00:07:11;;;;;;;7.38;3.63;;;18.20;73.70;;;;;;5057560;28;20025;-70
2023/10/07 00:09:45;;;;;;;7.03;3.08;;;18.10;73.60;;;;;;5055388;28;20115;-70
2023/10/07 00:12:19;;;;;;;5.40;3.30;;;18.10;73.60;;;;;;5059886;28;20094;-69
2023/10/07 00:14:45;;;;;;;5.78;3.38;;;18.10;73.60;;;;;;5053746;28;20033;-67
2023/10/07 00:17:18;;;;;;;5.93;3.17;;;18.10;73.70;;;;;;5060918;28;20033;-67
2023/10/07 00:19:47;;;;;;;;;;;18.10;73.70;;;;;;5061504;28;20481;-67
2023/10/07 00:22:14;;;;;;;5.72;2.92;;;18.10;73.70;;;;;;5070648;28;19920;-66
2023/10/07 00:24:43;;;;;;;4.05;2.80;;;18.10;73.60;;;;;;5062629;28;20047;-69
2023/10/07 00:27:30;;;;;;;5.57;3.00;;;18.00;73.50;;;;;;5058491;28;20123;-68
2023/10/07 00:29:59;;;;;;;5.63;3.10;;;18.00;74.10;;;;;;5054726;28;20060;-71
2023/10/07 00:32:29;;;;;;;5.72;2.60;;;18.00;73.50;;;;;;5055218;28;20036;-72
2023/10/07 00:34:59;;;;;;;5.53;3.20;;;18.00;73.60;;;;;;5041422;28;20120;-69
2023/10/07 00:37:26;;;;;;;4.43;2.60;;;18.00;73.60;;;;;;5061599;28;20051;-71
2023/10/07 00:39:53;;;;;;;6.32;3.55;;;17.90;73.40;;;;;;5058421;28;20204;-71
2023/10/07 00:42:22;;;;;;;4.55;3.55;;;17.90;73.50;;;;;;5060947;28;20110;-71
2023/10/07 00:44:53;;;;;;;7.45;3.10;;;17.90;73.40;;;;;;5061267;28;20040;-70
2023/10/07 00:47:20;;;;;;;5.32;3.22;;;17.90;73.50;;;;;;5062231;28;20032;-68
2023/10/07 00:49:53;;;;;;;6.35;2.83;;;17.90;73.50;;;;;;5060907;28;20033;-66
2023/10/07 00:52:28;;;;;;;6.00;2.95;;;17.90;73.50;;;;;;5051658;28;20506;-70
2023/10/07 00:55:00;;;;;;;4.35;2.78;;;17.90;74.10;;;;;;5063277;28;20032;-67
2023/10/07 00:59:57;;;;;;;4.47;2.92;;;17.80;73.30;;;;;;5057859;28;20048;-68
2023/10/07 01:02:30;;;;;;;4.05;2.90;;;17.80;73.80;;;;;;5044302;28;20102;-68
2023/10/07 01:05:24;;;;;;;5.68;3.28;;;17.80;73.30;;;;;;5060933;28;20710;-73
2023/10/07 01:07:53;;;;;;;5.65;3.38;;;17.80;73.40;;;;;;5058800;28;20035;-71
2023/10/07 01:10:27;;;;;;;4.03;3.00;;;17.70;73.20;;;;;;5060423;28;20037;-69
2023/10/07 01:12:56;;;;;;;6.13;2.85;;;17.70;73.20;;;;;;5053911;28;20017;-67
2023/10/07 01:15:29;;;;;;;7.20;3.13;;;17.70;73.20;;;;;;5050746;28;20028;-70
2023/10/07 01:18:05;;;;;;;5.78;3.75;;;17.70;73.20;;;;;;5060902;28;20032;-68
2023/10/07 01:20:58;;;;;;;5.35;2.75;;;17.60;73.10;;;;;;5056707;28;20067;-67
2023/10/07 01:23:32;;;;;;;4.90;3.03;;;17.60;73.10;;;;;;5055694;28;20071;-67
2023/10/07 01:25:59;;;;;;;5.18;2.83;;;17.60;73.10;;;;;;5059473;28;20044;-66
2023/10/07 01:28:26;;;;;;;3.90;2.53;;;17.60;73.10;;;;;;5054539;28;20116;-66
2023/10/07 01:31:08;;;;;;;4.72;2.80;;;17.60;73.20;;;;;;5063056;28;20040;-67
2023/10/07 01:33:46;;;;;;;6.47;2.92;;;17.60;73.20;;;;;;5056993;28;20029;-76
2023/10/07 01:38:44;;;;;;;6.13;3.40;;;17.60;73.70;;;;;;5056408;28;20032;-70
2023/10/07 01:41:21;;;;;;;5.40;4.00;;;17.50;73.00;;;;;;5062288;28;20497;-72
2023/10/07 01:43:59;;;;;;;3.85;2.92;;;17.50;73.10;;;;;;5060399;28;20040;-66
2023/10/07 01:46:27;;;;;;;4.18;2.70;;;17.50;73.10;;;;;;5056701;28;20496;-74
2023/10/07 01:48:55;;;;;;;6.85;4.13;;;17.50;73.10;;;;;;5060721;28;20036;-71
2023/10/07 01:51:23;;;;;;;6.53;3.50;;;17.50;73.20;;;;;;5060252;28;20036;-73
2023/10/07 01:53:56;;;;;;;3.78;3.10;;;17.50;73.20;;;;;;5062395;28;20377;-73
2023/10/07 01:56:29;;;;;;;5.68;3.40;;;17.40;73.10;;;;;;5055341;28;20033;-77
2023/10/07 02:01:50;;;;;;;4.05;3.10;;;17.40;73.10;;;;;;5062857;28;20036;-71
2023/10/07 02:04:18;;;;;;;6.85;2.90;;;17.40;73.20;;;;;;5060788;28;20080;-72
2023/10/07 02:06:51;;;;;;;6.38;3.97;;;17.40;73.20;;;;;;5061779;28;20380;-71
2023/10/07 02:09:25;;;;;;;4.60;3.03;;;17.30;73.00;;;;;;5050786;28;20127;-71
2023/10/07 02:11:54;;;;;;;5.28;3.47;;;17.40;73.30;;;;;;5043459;28;20045;-73
2023/10/07 02:14:24;;;;;;;5.75;3.38;;;17.30;73.10;;;;;;5058323;28;20093;-75
2023/10/07 02:16:59;;;;;;;6.40;4.35;;;17.30;73.10;;;;;;5056380;28;20515;-73
2023/10/07 02:19:32;;;;;;;4.88;3.90;;;17.30;73.20;;;;;;5061973;28;20040;-75
2023/10/07 02:22:04;;;;;;;5.85;3.33;;;17.30;73.20;;;;;;5058913;28;20036;-75
2023/10/07 02:24:32;;;;;;;6.18;3.40;;;17.30;73.20;;;;;;5051613;28;20098;-71
2023/10/07 02:27:17;;;;;;;4.28;2.53;;;17.30;73.30;;;;;;5059822;28;20111;-75
2023/10/07 02:29:50;;;;;;;4.75;3.22;;;17.20;73.10;;;;;;5060431;28;20427;-75
2023/10/07 02:32:19;;;;;;;3.85;3.03;;;17.20;73.20;;;;;;5059424;28;20060;-76
2023/10/07 02:34:51;;;;;;;4.47;3.38;;;17.20;73.20;;;;;;5058761;28;20202;-71
2023/10/07 02:37:21;;;;;;;7.85;3.70;;;17.20;73.20;;;;;;5055826;28;20138;-76
2023/10/07 02:39:50;;;;;;;4.15;3.47;;;17.20;73.30;;;;;;5055438;28;20025;-78
2023/10/07 02:42:28;;;;;;;6.40;3.80;;;17.10;73.10;;;;;;5055443;28;20028;-74
2023/10/07 02:45:00;;;;;;;5.93;4.25;;;17.10;73.20;;;;;;5056759;28;20298;-79
2023/10/07 02:47:30;;;;;;;;;;;17.10;73.20;;;;;;5061152;28;20071;-77
2023/10/07 02:50:00;;;;;;;5.95;3.45;;;17.10;73.20;;;;;;5061067;28;19919;-70
2023/10/07 02:52:36;;;;;;;4.28;2.95;;;17.10;73.20;;;;;;5059990;28;20093;-70
2023/10/07 02:57:55;;;;;;;4.18;3.70;;;17.00;73.20;;;;;;5056352;28;20044;-74
2023/10/07 03:00:49;;;;;;;7.22;4.40;;;17.10;73.40;;;;;;5055423;28;20043;-73
2023/10/07 03:05:59;;;;;;;5.80;3.70;;;17.00;73.30;;;;;;5060575;28;20047;-74
2023/10/07 03:08:50;;;;;;;4.07;3.63;;;17.00;73.30;;;;;;5043895;28;20119;-75
2023/10/07 03:11:21;;;;;;;6.20;4.28;;;17.00;73.40;;;;;;5054048;28;20320;-75
2023/10/07 03:13:49;;;;;;;6.28;3.72;;;17.00;73.40;;;;;;5056487;28;20035;-67
2023/10/07 03:24:11;;;;;;;4.30;3.90;;;16.90;73.40;;;;;;5054778;28;20045;-76
2023/10/07 03:26:40;;;;;;;7.00;4.18;;;16.90;73.50;;;;;;5061335;28;20044;-78
2023/10/07 03:29:06;;;;;;;5.45;4.22;;;16.90;73.50;;;;;;5061546;28;20064;-74
2023/10/07 03:31:34;;;;;;;7.80;3.92;;;16.80;73.40;;;;;;5055267;28;20108;-71
2023/10/07 03:34:07;;;;;;;5.75;4.03;;;16.90;73.60;;;;;;5063126;28;20024;-76
2023/10/07 03:41:48;;;;;;;5.90;4.57;;;16.80;73.40;;;;;;5057832;28;20515;-70
2023/10/07 03:44:18;;;;;;;8.18;4.50;;;16.80;73.50;;;;;;5053186;28;20043;-69
2023/10/07 03:46:50;;;;;;;6.53;4.50;;;16.80;73.50;;;;;;5061529;28;20086;-72
2023/10/07 03:49:16;;;;;;;5.00;4.47;;;16.70;73.40;;;;;;5052728;28;20333;-72
2023/10/07 03:51:48;;;;;;;7.78;4.50;;;16.70;73.40;;;;;;5052503;28;20041;-68
2023/10/07 03:54:29;;;;;;;5.47;4.40;;;16.70;73.50;;;;;;5052340;28;20044;-72
2023/10/07 03:57:00;;;;;;;6.35;4.00;;;16.70;73.50;;;;;;5055251;28;20598;-70
2023/10/07 03:59:34;;;;;;;5.95;4.40;;;16.70;73.50;;;;;;5050842;28;20084;-72
2023/10/07 04:02:12;;;;;;;6.28;4.40;;;16.70;73.60;;;;;;5054710;28;20037;-72
2023/10/07 04:04:41;;;;;;;5.25;4.18;;;16.70;73.60;;;;;;5053924;28;20467;-72
2023/10/07 04:07:08;;;;;;;6.07;4.60;;;16.60;73.40;;;;;;5053564;28;20058;-71
2023/10/07 04:09:35;;;;;;;6.47;4.05;;;16.60;73.40;;;;;;5054288;28;20028;-68
2023/10/07 04:12:03;;;;;;;5.10;4.35;;;16.60;73.50;;;;;;5058019;28;20515;-74
2023/10/07 04:14:28;;;;;;;5.25;4.57;;;16.60;73.50;;;;;;5059618;28;20499;-73
2023/10/07 04:17:16;;;;;;;6.05;4.85;;;16.60;73.50;;;;;;5056289;28;20120;-68
2023/10/07 04:19:42;;;;;;;7.90;5.28;;;16.60;73.60;;;;;;5060885;28;20048;-74
2023/10/07 04:22:09;;;;;;;5.63;3.75;;;16.50;73.40;;;;;;5060949;28;20036;-71
2023/10/07 04:24:38;;;;;;;5.70;4.50;;;16.60;73.60;;;;;;5057142;28;20051;-72
2023/10/07 04:27:05;;;;;;;5.45;4.47;;;16.50;73.50;;;;;;5060886;28;20079;-68
2023/10/07 04:29:32;;;;;;;5.03;3.63;;;16.50;73.50;;;;;;5057354;28;20116;-69
2023/10/07 04:32:05;;;;;;;5.68;4.38;;;16.50;73.60;;;;;;5061365;28;20032;-69
2023/10/07 04:34:36;;;;;;;5.18;4.20;;;16.50;73.70;;;;;;5065065;28;20044;-68
2023/10/07 04:42:20;;;;;;;7.28;4.75;;;16.40;73.50;;;;;;5078391;28;20032;-74
2023/10/07 04:49:58;;;;;;;6.15;4.22;;;16.40;73.60;;;;;;5056039;28;20044;-72
2023/10/07 04:52:30;;;;;;;9.07;4.88;;;16.40;73.60;;;;;;5064143;28;20125;-74
2023/10/07 04:54:58;;;;;;;6.60;4.90;;;16.40;73.70;;;;;;5068417;28;20033;-76
2023/10/07 05:00:27;;;;;;;7.53;5.75;;;16.30;73.60;;;;;;5069591;28;20063;-73
2023/10/07 05:03:14;;;;;;;8.00;4.78;;;16.30;73.60;;;;;;5061014;28;20032;-74
2023/10/07 05:05:43;;;;;;;6.05;4.93;;;16.20;73.50;;;;;;5059938;28;20036;-72
2023/10/07 05:08:22;;;;;;;6.10;5.45;;;16.30;73.70;;;;;;5064345;28;20091;-72
2023/10/07 05:11:03;;;;;;;5.95;5.13;;;16.30;73.70;;;;;;5055269;28;20053;-71
2023/10/07 05:13:32;;;;;;;7.03;4.85;;;16.20;73.50;;;;;;5064889;28;20203;-74
2023/10/07 05:15:58;;;;;;;7.85;5.18;;;16.20;73.60;;;;;;5048786;28;20148;-72
2023/10/07 05:18:24;;;;;;;8.20;5.82;;;16.20;73.60;;;;;;5059731;28;20039;-75
2023/10/07 05:20:51;;;;;;;6.18;5.55;;;16.20;73.60;;;;;;5050718;28;20615;-72
2023/10/07 05:23:18;;;;;;;7.47;5.63;;;16.20;73.70;;;;;;5055735;28;20037;-74
2023/10/07 05:25:49;;;;;;;8.07;4.72;;;16.10;73.50;;;;;;5059316;28;20047;-67
2023/10/07 05:28:22;;;;;;;8.05;5.07;;;16.10;73.60;;;;;;5053623;28;20621;-71
2023/10/07 05:30:51;;;;;;;6.05;5.20;;;16.10;73.60;;;;;;5054105;28;20111;-71
2023/10/07 05:33:25;;;;;;;6.22;5.30;;;16.10;73.70;;;;;;5058391;28;20492;-72
2023/10/07 05:36:13;;;;;;;7.15;5.50;;;16.10;73.70;;;;;;5056315;28;20102;-73
2023/10/07 05:38:50;;;;;;;7.35;5.85;;;16.10;73.70;;;;;;5058765;28;20029;-70
2023/10/07 05:41:16;;;;;;;6.78;6.07;;;16.10;73.70;;;;;;5055829;28;20064;-73
2023/10/07 05:43:44;;;;;;;7.07;4.90;;;16.00;73.60;;;;;;5055415;28;20041;-72
2023/10/07 05:46:13;;;;;;;7.30;5.70;;;16.00;73.60;;;;;;5053384;28;20063;-72
2023/10/07 05:48:40;;;;;;;6.95;5.40;;;16.10;73.90;;;;;;5060327;28;20051;-70
2023/10/07 05:51:09;;;;;;;8.63;6.43;;;16.10;73.80;;;;;;5051559;28;20044;-67
2023/10/07 05:53:39;;;;;;;7.85;7.15;;;16.10;73.90;;;;;;5058273;28;20033;-68
2023/10/07 05:56:07;;;;;;;10.55;5.95;;;16.10;73.90;;;;;;5055105;28;20040;-68
2023/10/07 05:58:35;;;;;;;8.73;5.57;;;16.10;73.90;;;;;;5052232;28;20203;-70
2023/10/07 06:01:03;;;;;;;7.38;5.88;;;16.10;73.90;;;;;;5053391;28;20024;-68
2023/10/07 06:03:30;;;;;;;8.70;6.00;;;16.10;73.90;;;;;;5050895;28;20068;-69
2023/10/07 06:05:59;;;;;;;9.60;6.53;;;16.10;74.40;;;;;;5049906;28;20062;-67
2023/10/07 06:08:26;;;;;;;8.82;6.15;;;16.10;73.90;;;;;;5056998;28;20516;-71
2023/10/07 06:10:54;;;;;;;5.80;5.20;;;16.10;73.90;;;;;;5049279;28;20066;-70
2023/10/07 06:13:20;;;;;;;6.25;5.65;;;16.20;74.00;;;;;;5057490;28;20029;-71
2023/10/07 06:15:46;;;;;;;6.10;5.32;;;16.20;74.00;;;;;;5044874;28;20047;-67
2023/10/07 06:18:12;;;;;;;8.48;6.05;;;16.20;74.00;;;;;;5056487;28;20055;-69
2023/10/07 06:20:38;;;;;;;7.03;6.13;;;16.20;74.10;;;;;;5053597;28;20059;-70
2023/10/07 06:23:14;;;;;;;7.75;5.50;;;16.20;74.10;;;;;;5053037;28;20035;-68
2023/10/07 06:25:42;;;;;;;8.90;6.15;;;16.20;74.10;;;;;;5052037;28;20374;-68
2023/10/07 06:28:17;;;;;;;7.55;5.63;;;16.20;74.00;;;;;;5054588;28;20047;-66
2023/10/07 06:30:42;;;;;;;5.82;5.10;;;16.20;74.10;;;;;;5048645;28;20044;-69
2023/10/07 06:33:12;;;;;;;7.63;5.97;;;16.30;74.20;;;;;;5056181;28;20236;-69
2023/10/07 06:35:38;;;;;;;8.70;5.68;;;16.20;74.00;;;;;;5047486;28;20033;-72
2023/10/07 06:38:05;;;;;;;8.60;5.70;;;16.30;74.20;;;;;;5057481;28;20032;-68
2023/10/07 06:40:35;;;;;;;9.52;6.85;;;16.30;74.20;;;;;;5056523;28;20119;-72
2023/10/07 06:43:01;;;;;;;9.00;5.82;;;16.30;74.10;;;;;;5059503;28;20518;-70
2023/10/07 06:45:38;;;;;;;6.18;5.60;;;16.40;74.30;;;;;;5053814;28;20098;-69
2023/10/07 06:48:11;;;;;;;7.95;5.60;;;16.40;74.30;;;;;;5060223;28;20028;-69
2023/10/07 06:50:44;;;;;;;9.48;6.40;;;16.40;74.20;;;;;;5056364;28;20059;-67
2023/10/07 06:53:11;;;;;;;6.28;5.68;;;16.50;74.40;;;;;;5067512;28;20044;-66
2023/10/07 06:55:44;;;;;;;7.05;5.88;;;16.40;74.10;;;;;;5058619;28;20032;-69
2023/10/07 06:58:11;;;;;;;10.65;6.72;;;16.50;74.30;;;;;;5047400;28;20029;-70
2023/10/07 07:00:47;;;;;;;11.45;5.97;;;16.50;74.20;;;;;;5061763;28;20122;-70
2023/10/07 07:03:19;;;;;;;6.43;5.72;;;16.50;74.20;;;;;;5043598;28;20028;-73
2023/10/07 07:05:46;;;;;;;6.57;5.90;;;16.60;74.40;;;;;;5051611;28;20035;-71
2023/10/07 07:08:13;;;;;;;6.70;5.32;;;16.60;74.30;;;;;;5058025;28;20028;-70
2023/10/07 07:10:40;;;;;;;6.72;6.03;;;16.60;74.30;;;;;;5057592;28;20504;-72
2023/10/07 07:13:13;;;;;;;6.75;6.07;;;16.60;74.30;;;;;;5043999;28;20119;-70
2023/10/07 07:15:43;;;;;;;9.73;5.90;;;16.70;74.40;;;;;;5046474;28;20060;-67
2023/10/07 07:20:49;;;;;;;9.48;6.63;;;16.80;75.10;;;;;;5050790;28;20035;-68
2023/10/07 07:23:16;;;;;;;9.48;6.47;;;16.80;75.30;;;;;;5054131;28;20532;-67
2023/10/07 07:26:06;;;;;;;17.13;6.68;;;16.90;75.60;;;;;;5057398;28;20068;-68
2023/10/07 07:28:31;;;;;;;13.38;7.28;;;16.90;75.60;;;;;;5056891;28;20028;-67
2023/10/07 07:30:58;;;;;;;9.85;6.30;;;17.00;75.70;;;;;;5055387;28;20633;-70
2023/10/07 07:33:37;;;;;;;10.18;6.78;;;17.10;76.00;;;;;;5057934;28;20062;-68
2023/10/07 07:36:18;;;;;;;7.50;5.55;;;17.10;76.00;;;;;;5051832;28;20032;-67
2023/10/07 07:38:45;;;;;;;10.38;6.13;;;17.20;76.20;;;;;;5057083;28;20570;-69
2023/10/07 07:41:26;;;;;;;13.90;6.35;;;17.20;76.20;;;;;;5052639;28;20109;-67
2023/10/07 07:43:58;;;;;;;10.55;6.68;;;17.20;76.20;;;;;;5051883;28;20043;-71
2023/10/07 07:46:26;;;;;;;11.10;6.20;;;17.30;76.30;;;;;;5057078;28;20131;-68
2023/10/07 07:49:05;;;;;;;11.23;6.35;;;17.30;76.30;;;;;;5056125;28;20037;-67
2023/10/07 07:51:37;;;;;;;9.80;6.68;;;17.40;76.60;;;;;;5053720;28;20124;-73
2023/10/07 07:54:07;;;;;;;8.93;6.70;;;17.40;76.40;;;;;;5050380;28;20033;-67
2023/10/07 07:56:35;;;;;;;9.02;6.93;;;17.50;76.60;;;;;;5049909;28;20052;-70
2023/10/07 07:59:13;;;;;;;8.68;6.53;;;17.50;76.50;;;;;;5057750;28;20048;-72
2023/10/07 08:01:53;;;;;;;9.10;6.45;;;17.60;76.70;;;;;;5061362;28;20043;-69
2023/10/07 08:05:08;;;;;;;7.07;6.38;;;17.70;76.70;;;;;;5055863;28;20052;-70
2023/10/07 08:09:52;;;;;;;11.40;6.95;;;17.90;76.70;;;;;;5064585;28;20509;-69
2023/10/07 08:12:19;;;;;;;7.93;6.18;;;18.00;76.60;;;;;;5058201;28;20029;-66
2023/10/07 08:14:47;;;;;;;7.50;5.90;;;18.10;76.70;;;;;;5047834;28;20111;-71
2023/10/07 08:17:19;;;;;;;7.60;5.60;;;18.10;76.60;;;;;;5055126;28;20044;-72
2023/10/07 08:19:52;;;;;;;9.38;6.40;;;18.20;76.60;;;;;;5057959;28;20076;-72
2023/10/07 08:22:23;;;;;;;8.90;5.65;;;18.30;76.70;;;;;;5055224;28;20037;-71
2023/10/07 08:24:52;;;;;;;8.02;5.15;;;18.50;76.80;;;;;;5058573;28;20681;-69
2023/10/07 08:30:09;;;;;;;9.02;5.18;;;18.70;77.10;;;;;;5051815;28;20032;-70
2023/10/07 08:32:37;;;;;;;9.75;5.72;;;18.80;77.10;;;;;;5054856;28;20153;-70
2023/10/07 08:35:17;;;;;;;7.80;5.65;;;19.00;77.40;;;;;;5054297;28;20044;-68
2023/10/07 08:37:46;;;;;;;10.52;6.07;;;19.10;77.50;;;;;;5052251;28;20036;-68
2023/10/07 08:40:15;;;;;;;9.15;5.53;;;19.20;77.50;;;;;;5053269;28;20094;-68
2023/10/07 08:42:45;;;;;;;9.27;5.63;;;19.30;77.60;;;;;;5055921;28;20041;-68
2023/10/07 08:45:23;;;;;;;7.15;5.88;;;19.30;77.60;;;;;;5064943;28;20079;-68
2023/10/07 08:47:53;;;;;;;8.25;5.40;;;19.40;77.70;;;;;;5059962;28;20024;-68
2023/10/07 08:50:23;;;;;;;9.18;6.35;;;19.50;77.60;;;;;;5057638;28;20032;-69
2023/10/07 08:53:06;;;;;;;7.85;5.65;;;19.60;78.20;;;;;;5054691;28;20040;-71
2023/10/07 08:55:33;;;;;;;9.20;5.82;;;19.70;77.60;;;;;;5050803;28;20033;-71
2023/10/07 08:58:03;;;;;;;7.57;5.25;;;19.80;77.60;;;;;;5057365;28;20055;-68
2023/10/07 09:00:39;;;;;;;9.35;6.15;;;19.80;77.50;;;;;;5065681;28;20036;-72
2023/10/07 09:03:14;;;;;;;8.93;6.53;;;19.90;78.10;;;;;;5055793;28;20032;-67
2023/10/07 09:05:42;;;;;;;9.43;5.50;;;20.00;77.50;;;;;;5056425;28;20113;-70
2023/10/07 09:08:11;;;;;;;8.48;5.40;;;20.00;77.40;;;;;;5056396;28;20081;-67
2023/10/07 09:10:40;;;;;;;7.90;5.63;;;20.10;77.40;;;;;;5052364;28;20040;-68
2023/10/07 09:13:12;;;;;;;7.82;5.03;;;20.10;77.10;;;;;;5064428;28;20028;-69
2023/10/07 09:15:42;;;;;;;10.80;6.13;;;20.20;77.10;;;;;;5043796;28;20033;-67
2023/10/07 09:18:10;;;;;;;8.00;5.53;;;20.20;76.90;;;;;;5056063;28;20086;-68
2023/10/07 09:20:45;;;;;;;7.82;5.30;;;20.30;76.80;;;;;;5055315;28;20471;-69
2023/10/07 09:23:19;;;;;;;9.45;5.22;;;20.40;76.70;;;;;;5054278;28;20075;-67
2023/10/07 09:25:55;;;;;;;8.75;6.07;;;20.40;76.40;;;;;;5059258;28;20045;-67
2023/10/07 09:28:30;;;;;;;;;;;20.50;76.20;;;;;;5061678;28;20040;-68
2023/10/07 09:31:05;;;;;;;6.82;5.95;;;20.60;76.10;;;;;;5052684;28;20303;-69
2023/10/07 09:33:38;;;;;;;8.43;6.53;;;20.80;76.30;;;;;;5060624;28;20487;-66
2023/10/07 09:36:33;;;;;;;7.05;5.70;;;20.80;76.00;;;;;;5056099;28;20126;-67
2023/10/07 09:41:39;;;;;;;9.07;6.43;;;21.00;75.80;;;;;;5058317;28;20400;-67
2023/10/07 09:44:21;;;;;;;7.35;5.50;;;21.00;75.60;;;;;;5055830;28;20432;-68
2023/10/07 09:46:52;;;;;;;5.85;5.35;;;21.00;75.40;;;;;;5057815;28;20276;-67
2023/10/07 09:49:23;;;;;;;8.35;6.40;;;21.10;75.50;;;;;;5059020;28;20116;-68
2023/10/07 09:51:50;;;;;;;6.22;4.88;;;21.10;75.40;;;;;;5055611;28;20036;-68
2023/10/07 09:54:47;;;;;;;8.25;5.80;;;21.10;75.30;;;;;;5058908;28;20339;-67
2023/10/07 09:57:37;;;;;;;7.60;5.20;;;21.10;75.20;;;;;;5055132;28;20043;-68
2023/10/07 10:03:12;;;;;;;6.18;5.55;;;21.20;75.20;;;;;;5062361;28;20032;-70
2023/10/07 10:06:07;;;;;;;7.00;6.03;;;21.20;75.10;;;;;;5061299;28;20055;-68
2023/10/07 10:09:09;;;;;;;7.88;5.50;;;21.20;75.00;;;;;;5053493;28;20147;-68
2023/10/07 10:16:45;;;;;;;8.23;5.47;;;21.30;75.10;;;;;;5051201;28;20564;-67
2023/10/07 10:19:23;;;;;;;7.82;5.88;;;21.40;75.20;;;;;;5056437;28;20037;-70
2023/10/07 10:21:51;;;;;;;9.25;5.35;;;21.40;75.10;;;;;;5058833;28;20107;-70
2023/10/07 10:24:23;;;;;;;6.93;6.10;;;21.50;75.10;;;;;;5057972;28;20127;-71
2023/10/07 10:26:54;;;;;;;7.32;5.75;;;21.50;75.00;;;;;;5052819;28;20067;-70
2023/10/07 10:29:27;;;;;;;8.50;5.60;;;21.60;75.10;;;;;;5053012;28;20106;-68
2023/10/07 10:31:58;;;;;;;9.60;5.43;;;21.60;74.90;;;;;;5061542;28;20032;-70
2023/10/07 10:34:26;;;;;;;7.25;5.20;;;21.70;74.90;;;;;;5058585;28;20043;-67
2023/10/07 10:36:55;;;;;;;12.98;6.93;;;21.80;75.00;;;;;;5050189;28;20043;-69
2023/10/07 10:39:31;;;;;;;6.90;4.95;;;21.80;74.80;;;;;;5053299;28;20097;-70
2023/10/07 10:42:02;;;;;;;6.22;4.47;;;21.90;74.90;;;;;;5057473;28;20776;-71
2023/10/07 10:44:38;;;;;;;7.88;4.95;;;21.90;74.70;;;;;;5057245;28;20554;-67
2023/10/07 10:47:06;;;;;;;7.88;5.38;;;21.90;74.60;;;;;;5057001;28;20513;-68
2023/10/07 10:49:32;;;;;;;6.28;4.93;;;22.00;74.70;;;;;;5055215;28;20495;-69
2023/10/07 10:52:00;;;;;;;7.47;4.75;;;22.00;74.60;;;;;;5060566;28;20032;-67
2023/10/07 10:54:26;;;;;;;7.60;5.05;;;22.10;74.70;;;;;;5057195;28;20396;-67
2023/10/07 10:56:57;;;;;;;8.70;4.63;;;22.10;74.60;;;;;;5055242;28;20376;-67
2023/10/07 10:59:43;;;;;;;6.35;4.72;;;22.10;74.50;;;;;;5059315;28;20048;-68
2023/10/07 11:02:11;;;;;;;8.32;4.93;;;22.10;74.50;;;;;;5056032;28;20534;-68
2023/10/07 11:04:37;;;;;;;6.10;4.22;;;22.20;74.70;;;;;;5052916;28;20359;-68
2023/10/07 11:07:07;;;;;;;7.43;5.60;;;22.30;75.00;;;;;;5055491;28;20062;-70
2023/10/07 11:09:37;;;;;;;14.82;7.07;;;22.30;75.10;;;;;;5055127;28;20044;-67
2023/10/07 11:12:12;;;;;;;19.48;7.40;;;22.40;75.40;;;;;;5057060;28;20032;-73
2023/10/07 11:14:41;;;;;;;22.50;8.85;;;22.50;75.70;;;;;;5048629;28;20025;-67
2023/10/07 11:17:15;;;;;;;26.05;10.60;;;22.60;76.10;;;;;;5056174;28;20089;-68
2023/10/07 11:19:53;;;;;;;25.90;12.27;;;22.70;76.60;;;;;;5057944;28;20032;-68
2023/10/07 11:22:20;;;;;;;22.60;10.70;;;22.80;77.20;;;;;;5057521;28;20048;-67
2023/10/07 11:24:50;;;;;;;22.67;10.50;;;22.80;77.30;;;;;;5059267;28;20047;-71
2023/10/07 11:27:23;;;;;;;19.30;10.27;;;22.90;77.90;;;;;;5056220;28;20044;-70
2023/10/07 11:30:06;;;;;;;15.55;7.90;;;22.90;78.10;;;;;;5052380;28;20082;-72
2023/10/07 11:32:36;;;;;;;;;;;23.00;78.30;;;;;;5060466;28;20028;-67
2023/10/07 11:35:14;;;;;;;17.83;7.70;;;23.10;78.20;;;;;;5056399;28;20212;-71
2023/10/07 11:37:47;;;;;;;10.38;6.40;;;23.10;77.90;;;;;;5048165;28;20036;-66
2023/10/07 11:40:13;;;;;;;13.85;6.70;;;23.10;77.80;;;;;;5061702;28;20155;-69
2023/10/07 11:42:40;;;;;;;7.68;5.35;;;23.10;77.70;;;;;;5060128;28;20028;-70
2023/10/07 11:45:09;;;;;;;12.60;6.70;;;23.20;77.70;;;;;;5058063;28;20325;-70
2023/10/07 11:47:39;;;;;;;10.30;5.43;;;23.20;77.50;;;;;;5053977;28;20312;-71
2023/10/07 11:50:07;;;;;;;9.60;5.68;;;23.20;77.30;;;;;;5053205;28;20036;-71
2023/10/07 11:52:33;;;;;;;9.20;5.35;;;23.20;77.70;;;;;;5053885;28;20052;-72
2023/10/07 11:55:00;;;;;;;12.98;5.68;;;23.20;77.00;;;;;;5055231;28;20029;-70
2023/10/07 11:57:27;;;;;;;8.15;5.38;;;23.30;77.00;;;;;;5052077;28;20555;-70
2023/10/07 11:59:53;;;;;;;14.93;5.50;;;23.30;76.90;;;;;;5055491;28;20082;-67
2023/10/07 12:02:21;;;;;;;8.38;4.55;;;23.40;77.00;;;;;;5052554;28;20504;-67
2023/10/07 12:04:48;;;;;;;8.07;4.80;;;23.40;77.00;;;;;;5055714;28;20045;-69
2023/10/07 12:07:16;;;;;;;9.85;5.07;;;23.40;77.10;;;;;;5048726;28;20032;-68
2023/10/07 12:09:46;;;;;;;10.23;5.10;;;23.50;76.50;;;;;;5056111;28;20097;-68
2023/10/07 12:12:13;;;;;;;6.32;4.70;;;23.60;76.20;;;;;;5055554;28;20037;-69
2023/10/07 12:14:40;;;;;;;9.73;5.35;;;23.80;76.10;;;;;;5051964;28;20028;-67
2023/10/07 12:17:07;;;;;;;9.27;4.88;;;23.90;75.80;;;;;;5052060;28;20123;-71
2023/10/07 12:19:35;;;;;;;7.53;4.18;;;24.10;75.60;;;;;;5055635;28;20098;-68
2023/10/07 12:22:05;;;;;;;7.70;4.72;;;24.20;75.30;;;;;;5049387;28;20025;-69
2023/10/07 12:24:32;;;;;;;9.55;5.10;;;24.40;75.10;;;;;;5050802;28;20032;-69
2023/10/07 12:26:59;;;;;;;6.43;4.32;;;24.60;75.40;;;;;;5053263;28;20086;-69
2023/10/07 12:29:27;;;;;;;7.25;4.03;;;24.70;74.60;;;;;;5056733;28;20032;-68
2023/10/07 12:31:53;;;;;;;8.25;4.55;;;24.80;74.20;;;;;;5054874;28;20033;-68
2023/10/07 12:34:20;;;;;;;7.05;4.70;;;25.00;74.20;;;;;;5059245;28;20032;-70
2023/10/07 12:36:47;;;;;;;7.68;5.22;;;25.00;73.70;;;;;;5059920;28;20047;-67
2023/10/07 12:39:14;;;;;;;8.75;4.35;;;25.20;73.40;;;;;;5056880;28;20040;-71
2023/10/07 12:41:43;;;;;;;5.95;3.92;;;25.20;73.10;;;;;;5063396;28;20036;-70
2023/10/07 12:44:10;;;;;;;6.15;4.63;;;25.30;72.90;;;;;;5061298;28;20046;-70
2023/10/07 12:46:38;;;;;;;6.88;4.38;;;25.30;72.70;;;;;;5058443;28;20036;-70
2023/10/07 12:49:13;;;;;;;7.57;4.68;;;25.40;72.40;;;;;;5057359;28;20519;-70
2023/10/07 12:51:45;;;;;;;7.03;4.50;;;25.50;72.10;;;;;;5057346;28;20064;-68
2023/10/07 12:54:12;;;;;;;7.18;4.78;;;25.50;71.80;;;;;;5059152;28;20052;-68
2023/10/07 12:56:39;;;;;;;5.72;4.45;;;25.60;71.70;;;;;;5057427;28;20039;-68
2023/10/07 12:59:23;;;;;;;7.47;4.32;;;25.70;71.50;;;;;;5058025;28;20106;-68
2023/10/07 13:01:51;;;;;;;7.00;4.57;;;25.70;71.20;;;;;;5059978;28;20101;-68
2023/10/07 13:04:25;;;;;;;6.30;4.63;;;25.70;71.10;;;;;;5056822;28;20044;-70
2023/10/07 13:07:03;;;;;;;7.28;4.82;;;25.60;70.90;;;;;;5058137;28;20082;-68
2023/10/07 13:09:33;;;;;;;7.70;4.75;;;25.60;70.90;;;;;;5063841;28;20387;-68
2023/10/07 13:12:00;;;;;;;6.03;4.00;;;25.50;70.80;;;;;;5064528;28;20357;-69
2023/10/07 13:14:29;;;;;;;6.15;4.07;;;25.50;70.70;;;;;;5059305;28;20488;-68
2023/10/07 13:16:58;;;;;;;5.75;4.60;;;25.50;70.70;;;;;;5056144;28;20051;-68
2023/10/07 13:19:26;;;;;;;7.28;4.72;;;25.50;70.60;;;;;;5059286;28;20060;-68
2023/10/07 13:21:55;;;;;;;5.75;4.10;;;25.50;70.50;;;;;;5059853;28;20041;-68
2023/10/07 13:24:22;;;;;;;6.65;3.85;;;25.60;70.40;;;;;;5055140;28;20048;-71
2023/10/07 13:26:49;;;;;;;9.77;5.05;;;25.60;70.20;;;;;;5066873;28;20033;-67
2023/10/07 13:29:15;;;;;;;14.38;5.32;;;25.60;70.00;;;;;;5053048;28;20029;-69
2023/10/07 13:31:41;;;;;;;4.65;3.83;;;25.60;69.90;;;;;;5051890;28;21000;-68
2023/10/07 13:34:07;;;;;;;6.57;4.80;;;25.60;69.80;;;;;;5055253;28;20102;-68
2023/10/07 13:36:37;;;;;;;6.65;5.05;;;25.70;69.70;;;;;;5051076;28;20059;-68
2023/10/07 13:39:15;;;;;;;6.75;4.43;;;25.70;69.60;;;;;;5058839;28;20134;-70
2023/10/07 13:41:45;;;;;;;6.10;3.88;;;25.80;69.40;;;;;;5053609;28;20028;-69
2023/10/07 13:44:16;;;;;;;8.35;5.20;;;25.90;69.30;;;;;;5060639;28;20032;-67
2023/10/07 13:46:43;;;;;;;7.28;3.97;;;26.00;69.00;;;;;;5056316;28;20047;-68
2023/10/07 13:49:13;;;;;;;6.35;4.07;;;26.10;68.80;;;;;;5052660;28;20052;-68
2023/10/07 13:51:43;;;;;;;4.95;4.07;;;26.20;68.50;;;;;;5055489;28;20044;-67
2023/10/07 13:54:22;;;;;;;7.05;4.32;;;26.30;68.30;;;;;;5057637;28;20044;-70
2023/10/07 13:56:54;;;;;;;4.43;3.50;;;26.40;68.30;;;;;;5050228;28;20040;-68
2023/10/07 13:59:23;;;;;;;6.28;4.32;;;26.50;68.10;;;;;;5049030;28;20114;-70
2023/10/07 14:01:52;;;;;;;5.70;3.90;;;26.50;67.90;;;;;;5055974;28;20646;-68
2023/10/07 14:04:19;;;;;;;6.07;4.57;;;26.50;67.70;;;;;;5053011;28;20051;-70
2023/10/07 14:06:54;;;;;;;6.60;4.03;;;26.50;67.60;;;;;;5054543;28;20033;-69